sensor_id;sensor_type;location;lat;lon;timestamp;P1;durP1;ratioP1;P2;durP2;ratioP2
29940;SDS011;16801;53.562;10.038;2023-10-13T00:03:10;4.20;;;2.70;;
29940;SDS011;16801;53.562;10.038;2023-10-13T00:06:35;5.90;;;3.07;;
29940;SDS011;16801;53.562;10.038;2023-10-13T00:09:58;3.67;;;2.03;;
29940;SDS011;16801;53.562;10.038;2023-10-13T00:13:19;5.33;;;2.17;;
29940;SDS011;16801;53.562;10.038;2023-10-13T00:16:40;7.37;;;3.53;;
29940;SDS011;16801;53.562;10.038;2023-10-13T00:20:01;5.53;;;2.77;;
29940;SDS011;16801;53.562;10.038;2023-10-13T00:23:31;5.27;;;3.43;;
29940;SDS011;16801;53.562;10.038;2023-10-13T00:26:53;10.30;;;3.70;;
29940;SDS011;16801;53.562;10.038;2023-10-13T00:30:14;4.73;;;2.63;;
29940;SDS011;16801;53.562;10.038;2023-10-13T00:33:37;4.67;;;2.87;;
29940;SDS011;16801;53.562;10.038;2023-10-13T00:36:58;5.87;;;3.70;;
29940;SDS011;16801;53.562;10.038;2023-10-13T00:40:36;6.70;;;2.80;;
29940;SDS011;16801;53.562;10.038;2023-10-13T00:44:12;5.83;;;3.27;;
29940;SDS011;16801;53.562;10.038;2023-10-13T00:47:36;6.23;;;2.90;;
29940;SDS011;16801;53.562;10.038;2023-10-13T00:51:07;8.93;;;3.43;;
29940;SDS011;16801;53.562;10.038;2023-10-13T00:54:37;9.57;;;3.87;;
29940;SDS011;16801;53.562;10.038;2023-10-13T00:57:58;6.80;;;3.43;;
29940;SDS011;16801;53.562;10.038;2023-10-13T01:01:23;5.23;;;4.53;;
29940;SDS011;16801;53.562;10.038;2023-10-13T01:04:49;6.93;;;4.13;;
29940;SDS011;16801;53.562;10.038;2023-10-13T01:08:10;6.53;;;4.43;;
29940;SDS011;16801;53.562;10.038;2023-10-13T01:11:32;7.97;;;3.80;;
29940;SDS011;16801;53.562;10.038;2023-10-13T01:14:52;6.20;;;3.47;;
29940;SDS011;16801;53.562;10.038;2023-10-13T01:18:18;4.90;;;3.83;;
29940;SDS011;16801;53.562;10.038;2023-10-13T01:21:39;7.47;;;4.67;;
29940;SDS011;16801;53.562;10.038;2023-10-13T01:25:02;7.00;;;5.70;;
29940;SDS011;16801;53.562;10.038;2023-10-13T01:28:24;9.30;;;4.37;;
29940;SDS011;16801;53.562;10.038;2023-10-13T01:31:46;12.40;;;4.53;;
29940;SDS011;16801;53.562;10.038;2023-10-13T01:35:07;8.93;;;4.70;;
29940;SDS011;16801;53.562;10.038;2023-10-13T01:38:27;7.03;;;4.70;;
29940;SDS011;16801;53.562;10.038;2023-10-13T01:41:54;10.33;;;3.90;;
29940;SDS011;16801;53.562;10.038;2023-10-13T01:45:15;7.50;;;4.73;;
29940;SDS011;16801;53.562;10.038;2023-10-13T01:48:39;6.67;;;4.87;;
29940;SDS011;16801;53.562;10.038;2023-10-13T01:52:01;6.70;;;4.27;;
29940;SDS011;16801;53.562;10.038;2023-10-13T01:55:23;7.37;;;4.33;;
29940;SDS011;16801;53.562;10.038;2023-10-13T01:58:45;10.93;;;5.67;;
29940;SDS011;16801;53.562;10.038;2023-10-13T02:02:07;7.03;;;4.47;;
29940;SDS011;16801;53.562;10.038;2023-10-13T02:05:31;10.53;;;6.50;;
29940;SDS011;16801;53.562;10.038;2023-10-13T02:08:56;10.33;;;5.40;;
29940;SDS011;16801;53.562;10.038;2023-10-13T02:12:17;8.00;;;4.77;;
29940;SDS011;16801;53.562;10.038;2023-10-13T02:15:46;8.37;;;5.70;;
29940;SDS011;16801;53.562;10.038;2023-10-13T02:19:08;9.63;;;5.47;;
29940;SDS011;16801;53.562;10.038;2023-10-13T02:22:29;12.20;;;7.57;;
29940;SDS011;16801;53.562;10.038;2023-10-13T02:25:51;8.67;;;6.50;;
29940;SDS011;16801;53.562;10.038;2023-10-13T02:29:20;7.10;;;6.03;;
29940;SDS011;16801;53.562;10.038;2023-10-13T02:32:42;10.07;;;6.10;;
29940;SDS011;16801;53.562;10.038;2023-10-13T02:36:04;7.90;;;7.10;;
29940;SDS011;16801;53.562;10.038;2023-10-13T02:39:24;10.33;;;5.43;;
29940;SDS011;16801;53.562;10.038;2023-10-13T02:42:47;10.20;;;5.43;;
29940;SDS011;16801;53.562;10.038;2023-10-13T02:46:07;12.07;;;6.67;;
29940;SDS011;16801;53.562;10.038;2023-10-13T02:49:30;8.80;;;6.33;;
29940;SDS011;16801;53.562;10.038;2023-10-13T02:52:53;10.43;;;7.33;;
29940;SDS011;16801;53.562;10.038;2023-10-13T02:56:14;11.13;;;6.97;;
29940;SDS011;16801;53.562;10.038;2023-10-13T02:59:39;7.97;;;6.50;;
29940;SDS011;16801;53.562;10.038;2023-10-13T03:03:05;16.50;;;8.93;;
29940;SDS011;16801;53.562;10.038;2023-10-13T03:06:28;14.07;;;8.07;;
29940;SDS011;16801;53.562;10.038;2023-10-13T03:09:53;15.10;;;7.57;;
29940;SDS011;16801;53.562;10.038;2023-10-13T03:13:17;10.50;;;7.53;;
29940;SDS011;16801;53.562;10.038;2023-10-13T03:16:38;12.10;;;8.07;;
29940;SDS011;16801;53.562;10.038;2023-10-13T03:19:59;11.90;;;8.77;;
29940;SDS011;16801;53.562;10.038;2023-10-13T03:23:21;13.60;;;7.37;;
29940;SDS011;16801;53.562;10.038;2023-10-13T03:26:44;19.20;;;8.70;;
29940;SDS011;16801;53.562;10.038;2023-10-13T03:30:11;12.20;;;7.87;;
29940;SDS011;16801;53.562;10.038;2023-10-13T03:33:35;6.93;;;6.27;;
29940;SDS011;16801;53.562;10.038;2023-10-13T03:36:58;8.97;;;7.07;;
29940;SDS011;16801;53.562;10.038;2023-10-13T03:40:20;15.63;;;8.57;;
29940;SDS011;16801;53.562;10.038;2023-10-13T03:43:56;8.07;;;6.97;;
29940;SDS011;16801;53.562;10.038;2023-10-13T03:47:29;10.20;;;6.40;;
29940;SDS011;16801;53.562;10.038;2023-10-13T03:50:52;6.70;;;5.80;;
29940;SDS011;16801;53.562;10.038;2023-10-13T03:54:21;5.50;;;4.83;;
29940;SDS011;16801;53.562;10.038;2023-10-13T03:57:43;9.57;;;6.83;;
29940;SDS011;16801;53.562;10.038;2023-10-13T04:01:09;6.00;;;5.50;;
29940;SDS011;16801;53.562;10.038;2023-10-13T04:04:32;7.67;;;6.60;;
29940;SDS011;16801;53.562;10.038;2023-10-13T04:08:07;7.43;;;5.50;;
29940;SDS011;16801;53.562;10.038;2023-10-13T04:11:46;9.30;;;8.30;;
29940;SDS011;16801;53.562;10.038;2023-10-13T04:15:31;7.23;;;6.53;;
29940;SDS011;16801;53.562;10.038;2023-10-13T04:19:01;8.57;;;7.47;;
29940;SDS011;16801;53.562;10.038;2023-10-13T04:22:29;15.43;;;8.43;;
29940;SDS011;16801;53.562;10.038;2023-10-13T04:26:16;8.63;;;7.07;;
29940;SDS011;16801;53.562;10.038;2023-10-13T04:29:40;8.50;;;7.60;;
29940;SDS011;16801;53.562;10.038;2023-10-13T04:33:17;10.23;;;7.70;;
29940;SDS011;16801;53.562;10.038;2023-10-13T04:36:55;9.13;;;8.33;;
29940;SDS011;16801;53.562;10.038;2023-10-13T04:40:40;12.00;;;9.07;;
29940;SDS011;16801;53.562;10.038;2023-10-13T04:44:18;10.20;;;8.07;;
29940;SDS011;16801;53.562;10.038;2023-10-13T04:47:56;10.50;;;9.37;;
29940;SDS011;16801;53.562;10.038;2023-10-13T04:51:34;14.23;;;9.20;;
29940;SDS011;16801;53.562;10.038;2023-10-13T04:55:09;11.47;;;8.70;;
29940;SDS011;16801;53.562;10.038;2023-10-13T04:58:36;13.17;;;10.73;;
29940;SDS011;16801;53.562;10.038;2023-10-13T05:02:26;16.70;;;10.47;;
29940;SDS011;16801;53.562;10.038;2023-10-13T05:06:05;15.27;;;9.77;;
29940;SDS011;16801;53.562;10.038;2023-10-13T05:09:57;14.40;;;10.37;;
29940;SDS011;16801;53.562;10.038;2023-10-13T05:13:44;13.83;;;12.33;;
29940;SDS011;16801;53.562;10.038;2023-10-13T05:17:22;12.83;;;11.23;;
29940;SDS011;16801;53.562;10.038;2023-10-13T05:21:01;14.10;;;11.17;;
29940;SDS011;16801;53.562;10.038;2023-10-13T05:24:39;17.07;;;12.63;;
29940;SDS011;16801;53.562;10.038;2023-10-13T05:28:19;13.70;;;11.93;;
29940;SDS011;16801;53.562;10.038;2023-10-13T05:31:57;17.13;;;14.93;;
29940;SDS011;16801;53.562;10.038;2023-10-13T05:35:36;15.43;;;14.00;;
29940;SDS011;16801;53.562;10.038;2023-10-13T05:39:14;17.63;;;15.10;;
29940;SDS011;16801;53.562;10.038;2023-10-13T05:42:53;21.60;;;16.10;;
29940;SDS011;16801;53.562;10.038;2023-10-13T05:46:32;19.83;;;16.80;;
29940;SDS011;16801;53.562;10.038;2023-10-13T05:50:20;19.53;;;16.67;;
29940;SDS011;16801;53.562;10.038;2023-10-13T05:54:04;21.77;;;16.23;;
29940;SDS011;16801;53.562;10.038;2023-10-13T05:57:43;20.07;;;16.40;;
29940;SDS011;16801;53.562;10.038;2023-10-13T06:01:22;21.23;;;18.07;;
29940;SDS011;16801;53.562;10.038;2023-10-13T06:05:02;20.57;;;16.80;;
29940;SDS011;16801;53.562;10.038;2023-10-13T06:08:41;19.57;;;17.57;;
29940;SDS011;16801;53.562;10.038;2023-10-13T06:12:20;20.40;;;17.40;;
29940;SDS011;16801;53.562;10.038;2023-10-13T06:15:58;21.47;;;18.40;;
29940;SDS011;16801;53.562;10.038;2023-10-13T06:19:36;28.53;;;18.47;;
29940;SDS011;16801;53.562;10.038;2023-10-13T06:23:16;23.23;;;20.07;;
29940;SDS011;16801;53.562;10.038;2023-10-13T06:26:55;17.67;;;15.53;;
29940;SDS011;16801;53.562;10.038;2023-10-13T06:30:33;20.00;;;16.83;;
29940;SDS011;16801;53.562;10.038;2023-10-13T06:33:54;20.27;;;17.67;;
29940;SDS011;16801;53.562;10.038;2023-10-13T06:37:15;23.67;;;16.70;;
29940;SDS011;16801;53.562;10.038;2023-10-13T06:40:46;20.23;;;17.30;;
29940;SDS011;16801;53.562;10.038;2023-10-13T06:44:08;24.63;;;17.90;;
29940;SDS011;16801;53.562;10.038;2023-10-13T06:47:34;23.67;;;18.80;;
29940;SDS011;16801;53.562;10.038;2023-10-13T06:50:59;23.93;;;17.90;;
29940;SDS011;16801;53.562;10.038;2023-10-13T06:54:24;20.97;;;18.87;;
29940;SDS011;16801;53.562;10.038;2023-10-13T06:57:46;19.60;;;17.53;;
29940;SDS011;16801;53.562;10.038;2023-10-13T07:01:08;19.80;;;17.87;;
29940;SDS011;16801;53.562;10.038;2023-10-13T07:04:34;20.33;;;18.03;;
29940;SDS011;16801;53.562;10.038;2023-10-13T07:07:58;19.90;;;17.83;;
29940;SDS011;16801;53.562;10.038;2023-10-13T07:11:24;22.33;;;18.30;;
29940;SDS011;16801;53.562;10.038;2023-10-13T07:14:54;22.33;;;19.60;;
29940;SDS011;16801;53.562;10.038;2023-10-13T07:18:29;21.73;;;19.47;;
29940;SDS011;16801;53.562;10.038;2023-10-13T07:21:55;20.40;;;18.40;;
29940;SDS011;16801;53.562;10.038;2023-10-13T07:25:19;21.63;;;19.43;;
29940;SDS011;16801;53.562;10.038;2023-10-13T07:28:43;23.17;;;19.90;;
29940;SDS011;16801;53.562;10.038;2023-10-13T07:32:05;17.57;;;15.83;;
29940;SDS011;16801;53.562;10.038;2023-10-13T07:35:32;19.47;;;17.53;;
29940;SDS011;16801;53.562;10.038;2023-10-13T07:38:55;19.93;;;17.77;;
29940;SDS011;16801;53.562;10.038;2023-10-13T07:42:39;19.63;;;17.77;;
29940;SDS011;16801;53.562;10.038;2023-10-13T07:46:00;24.17;;;17.00;;
29940;SDS011;16801;53.562;10.038;2023-10-13T07:49:30;16.07;;;14.57;;
29940;SDS011;16801;53.562;10.038;2023-10-13T07:52:51;21.77;;;15.03;;
29940;SDS011;16801;53.562;10.038;2023-10-13T07:56:24;16.37;;;14.67;;
29940;SDS011;16801;53.562;10.038;2023-10-13T07:59:49;12.83;;;11.53;;
29940;SDS011;16801;53.562;10.038;2023-10-13T08:03:12;13.93;;;12.53;;
29940;SDS011;16801;53.562;10.038;2023-10-13T08:06:48;16.33;;;12.83;;
29940;SDS011;16801;53.562;10.038;2023-10-13T08:10:18;12.50;;;11.00;;
29940;SDS011;16801;53.562;10.038;2023-10-13T08:13:44;13.93;;;12.67;;
29940;SDS011;16801;53.562;10.038;2023-10-13T08:17:07;11.43;;;10.40;;
29940;SDS011;16801;53.562;10.038;2023-10-13T08:20:32;12.27;;;10.93;;
29940;SDS011;16801;53.562;10.038;2023-10-13T08:23:58;11.90;;;10.73;;
29940;SDS011;16801;53.562;10.038;2023-10-13T08:27:27;11.57;;;10.27;;
29940;SDS011;16801;53.562;10.038;2023-10-13T08:30:53;11.50;;;10.40;;
29940;SDS011;16801;53.562;10.038;2023-10-13T08:34:16;9.80;;;8.23;;
29940;SDS011;16801;53.562;10.038;2023-10-13T08:37:43;11.37;;;10.37;;
29940;SDS011;16801;53.562;10.038;2023-10-13T08:41:20;11.63;;;10.47;;
29940;SDS011;16801;53.562;10.038;2023-10-13T08:45:13;10.90;;;9.90;;
29940;SDS011;16801;53.562;10.038;2023-10-13T08:49:01;10.67;;;9.57;;
29940;SDS011;16801;53.562;10.038;2023-10-13T08:52:28;9.20;;;7.80;;
29940;SDS011;16801;53.562;10.038;2023-10-13T08:56:06;9.07;;;8.27;;
29940;SDS011;16801;53.562;10.038;2023-10-13T08:59:35;6.33;;;5.83;;
29940;SDS011;16801;53.562;10.038;2023-10-13T09:02:58;7.27;;;6.67;;
29940;SDS011;16801;53.562;10.038;2023-10-13T09:06:35;7.20;;;6.60;;
29940;SDS011;16801;53.562;10.038;2023-10-13T09:09:56;8.13;;;6.00;;
29940;SDS011;16801;53.562;10.038;2023-10-13T09:13:34;5.80;;;5.30;;
29940;SDS011;16801;53.562;10.038;2023-10-13T09:17:07;5.53;;;5.07;;
29940;SDS011;16801;53.562;10.038;2023-10-13T09:20:30;6.53;;;5.80;;
29940;SDS011;16801;53.562;10.038;2023-10-13T09:24:02;4.77;;;4.27;;
29940;SDS011;16801;53.562;10.038;2023-10-13T09:27:48;3.83;;;3.43;;
29940;SDS011;16801;53.562;10.038;2023-10-13T09:31:10;4.97;;;3.70;;
29940;SDS011;16801;53.562;10.038;2023-10-13T09:34:33;8.30;;;4.53;;
29940;SDS011;16801;53.562;10.038;2023-10-13T09:38:00;4.00;;;3.67;;
29940;SDS011;16801;53.562;10.038;2023-10-13T09:41:22;5.47;;;4.03;;
29940;SDS011;16801;53.562;10.038;2023-10-13T09:44:47;5.90;;;4.43;;
29940;SDS011;16801;53.562;10.038;2023-10-13T09:48:11;2.77;;;2.53;;
29940;SDS011;16801;53.562;10.038;2023-10-13T09:51:42;3.33;;;3.00;;
29940;SDS011;16801;53.562;10.038;2023-10-13T09:55:16;10.60;;;4.07;;
29940;SDS011;16801;53.562;10.038;2023-10-13T09:58:42;4.70;;;4.07;;
29940;SDS011;16801;53.562;10.038;2023-10-13T10:02:10;5.13;;;3.43;;
29940;SDS011;16801;53.562;10.038;2023-10-13T10:05:38;5.77;;;3.77;;
29940;SDS011;16801;53.562;10.038;2023-10-13T10:09:06;5.10;;;3.80;;
29940;SDS011;16801;53.562;10.038;2023-10-13T10:12:34;5.30;;;3.90;;
29940;SDS011;16801;53.562;10.038;2023-10-13T10:16:08;12.30;;;3.90;;
29940;SDS011;16801;53.562;10.038;2023-10-13T10:19:33;3.83;;;3.50;;
29940;SDS011;16801;53.562;10.038;2023-10-13T10:23:05;4.30;;;3.27;;
29940;SDS011;16801;53.562;10.038;2023-10-13T10:26:30;5.07;;;4.57;;
29940;SDS011;16801;53.562;10.038;2023-10-13T10:29:54;5.40;;;3.93;;
29940;SDS011;16801;53.562;10.038;2023-10-13T10:33:15;4.63;;;3.77;;
29940;SDS011;16801;53.562;10.038;2023-10-13T10:36:37;7.38;;;3.60;;
29940;SDS011;16801;53.562;10.038;2023-10-13T10:40:06;7.90;;;4.20;;
29940;SDS011;16801;53.562;10.038;2023-10-13T10:43:29;7.28;;;4.40;;
29940;SDS011;16801;53.562;10.038;2023-10-13T10:47:09;7.23;;;4.67;;
29940;SDS011;16801;53.562;10.038;2023-10-13T10:50:30;4.25;;;3.50;;
29940;SDS011;16801;53.562;10.038;2023-10-13T10:53:55;5.40;;;3.92;;
29940;SDS011;16801;53.562;10.038;2023-10-13T10:57:17;7.20;;;3.60;;
29940;SDS011;16801;53.562;10.038;2023-10-13T11:00:40;3.92;;;3.60;;
29940;SDS011;16801;53.562;10.038;2023-10-13T11:04:06;4.25;;;3.85;;
29940;SDS011;16801;53.562;10.038;2023-10-13T11:07:37;4.80;;;4.35;;
29940;SDS011;16801;53.562;10.038;2023-10-13T11:11:09;9.07;;;5.00;;
29940;SDS011;16801;53.562;10.038;2023-10-13T11:14:37;6.60;;;4.30;;
29940;SDS011;16801;53.562;10.038;2023-10-13T11:17:59;9.13;;;5.40;;
29940;SDS011;16801;53.562;10.038;2023-10-13T11:21:28;4.63;;;4.22;;
29940;SDS011;16801;53.562;10.038;2023-10-13T11:24:50;6.57;;;5.20;;
29940;SDS011;16801;53.562;10.038;2023-10-13T11:28:11;7.80;;;4.63;;
29940;SDS011;16801;53.562;10.038;2023-10-13T11:31:39;9.20;;;4.88;;
29940;SDS011;16801;53.562;10.038;2023-10-13T11:35:02;4.63;;;3.80;;
29940;SDS011;16801;53.562;10.038;2023-10-13T11:38:29;5.63;;;3.88;;
29940;SDS011;16801;53.562;10.038;2023-10-13T11:42:02;6.80;;;4.75;;
29940;SDS011;16801;53.562;10.038;2023-10-13T11:45:30;6.47;;;3.85;;
29940;SDS011;16801;53.562;10.038;2023-10-13T11:48:51;6.13;;;4.07;;
29940;SDS011;16801;53.562;10.038;2023-10-13T11:52:15;6.90;;;3.80;;
29940;SDS011;16801;53.562;10.038;2023-10-13T11:55:36;6.65;;;3.33;;
29940;SDS011;16801;53.562;10.038;2023-10-13T11:58:57;6.32;;;3.72;;
29940;SDS011;16801;53.562;10.038;2023-10-13T12:02:20;4.00;;;3.63;;
29940;SDS011;16801;53.562;10.038;2023-10-13T12:05:59;9.40;;;4.13;;
29940;SDS011;16801;53.562;10.038;2023-10-13T12:09:39;7.78;;;3.53;;
29940;SDS011;16801;53.562;10.038;2023-10-13T12:13:16;6.35;;;4.70;;
29940;SDS011;16801;53.562;10.038;2023-10-13T12:16:37;5.97;;;3.20;;
29940;SDS011;16801;53.562;10.038;2023-10-13T12:19:58;7.38;;;4.07;;
29940;SDS011;16801;53.562;10.038;2023-10-13T12:23:19;6.18;;;3.75;;
29940;SDS011;16801;53.562;10.038;2023-10-13T12:26:51;10.40;;;4.18;;
29940;SDS011;16801;53.562;10.038;2023-10-13T12:30:15;14.70;;;5.20;;
29940;SDS011;16801;53.562;10.038;2023-10-13T12:33:42;5.53;;;3.55;;
29940;SDS011;16801;53.562;10.038;2023-10-13T12:37:03;8.23;;;3.45;;
29940;SDS011;16801;53.562;10.038;2023-10-13T12:40:45;9.13;;;3.58;;
29940;SDS011;16801;53.562;10.038;2023-10-13T12:44:27;9.68;;;4.55;;
29940;SDS011;16801;53.562;10.038;2023-10-13T12:48:20;5.00;;;3.47;;
29940;SDS011;16801;53.562;10.038;2023-10-13T12:51:59;6.03;;;3.65;;
29940;SDS011;16801;53.562;10.038;2023-10-13T12:55:20;4.50;;;3.55;;
29940;SDS011;16801;53.562;10.038;2023-10-13T12:58:44;6.40;;;3.40;;
29940;SDS011;16801;53.562;10.038;2023-10-13T13:02:12;5.80;;;3.88;;
29940;SDS011;16801;53.562;10.038;2023-10-13T13:05:35;6.28;;;4.25;;
29940;SDS011;16801;53.562;10.038;2023-10-13T13:09:04;7.40;;;3.58;;
29940;SDS011;16801;53.562;10.038;2023-10-13T13:12:29;5.18;;;3.13;;
29940;SDS011;16801;53.562;10.038;2023-10-13T13:15:50;5.88;;;4.00;;
29940;SDS011;16801;53.562;10.038;2023-10-13T13:19:13;5.47;;;3.60;;
29940;SDS011;16801;53.562;10.038;2023-10-13T13:22:34;7.43;;;4.13;;
29940;SDS011;16801;53.562;10.038;2023-10-13T13:25:54;4.60;;;3.60;;
29940;SDS011;16801;53.562;10.038;2023-10-13T13:29:17;6.65;;;4.15;;
29940;SDS011;16801;53.562;10.038;2023-10-13T13:32:38;4.97;;;3.75;;
29940;SDS011;16801;53.562;10.038;2023-10-13T13:36:01;6.15;;;3.88;;
29940;SDS011;16801;53.562;10.038;2023-10-13T13:39:23;9.27;;;3.60;;
29940;SDS011;16801;53.562;10.038;2023-10-13T13:42:49;4.80;;;3.85;;
29940;SDS011;16801;53.562;10.038;2023-10-13T13:46:10;6.53;;;3.40;;
29940;SDS011;16801;53.562;10.038;2023-10-13T13:49:31;7.03;;;3.35;;
29940;SDS011;16801;53.562;10.038;2023-10-13T13:53:00;9.35;;;4.25;;
29940;SDS011;16801;53.562;10.038;2023-10-13T13:56:21;5.85;;;4.50;;
29940;SDS011;16801;53.562;10.038;2023-10-13T13:59:44;6.30;;;4.35;;
29940;SDS011;16801;53.562;10.038;2023-10-13T14:03:05;7.47;;;4.35;;
29940;SDS011;16801;53.562;10.038;2023-10-13T14:06:32;7.07;;;3.95;;
29940;SDS011;16801;53.562;10.038;2023-10-13T14:09:55;6.15;;;3.78;;
29940;SDS011;16801;53.562;10.038;2023-10-13T14:13:25;5.45;;;3.17;;
29940;SDS011;16801;53.562;10.038;2023-10-13T14:17:05;6.82;;;4.05;;
29940;SDS011;16801;53.562;10.038;2023-10-13T14:20:29;7.50;;;3.80;;
29940;SDS011;16801;53.562;10.038;2023-10-13T14:23:50;9.18;;;4.28;;
29940;SDS011;16801;53.562;10.038;2023-10-13T14:27:14;8.00;;;4.18;;
29940;SDS011;16801;53.562;10.038;2023-10-13T14:30:37;17.88;;;3.85;;
29940;SDS011;16801;53.562;10.038;2023-10-13T14:33:58;12.48;;;4.78;;
29940;SDS011;16801;53.562;10.038;2023-10-13T14:37:19;6.97;;;4.30;;
29940;SDS011;16801;53.562;10.038;2023-10-13T14:40:45;6.90;;;4.40;;
29940;SDS011;16801;53.562;10.038;2023-10-13T14:44:09;8.00;;;4.82;;
29940;SDS011;16801;53.562;10.038;2023-10-13T14:47:32;8.85;;;4.72;;
29940;SDS011;16801;53.562;10.038;2023-10-13T14:50:53;8.80;;;5.03;;
29940;SDS011;16801;53.562;10.038;2023-10-13T14:54:14;7.03;;;5.00;;
29940;SDS011;16801;53.562;10.038;2023-10-13T14:57:35;6.57;;;4.72;;
29940;SDS011;16801;53.562;10.038;2023-10-13T15:00:58;10.45;;;5.28;;
29940;SDS011;16801;53.562;10.038;2023-10-13T15:04:20;5.88;;;4.15;;
29940;SDS011;16801;53.562;10.038;2023-10-13T15:07:43;7.80;;;4.72;;
29940;SDS011;16801;53.562;10.038;2023-10-13T15:11:08;10.32;;;4.57;;
29940;SDS011;16801;53.562;10.038;2023-10-13T15:14:32;11.70;;;4.82;;
29940;SDS011;16801;53.562;10.038;2023-10-13T15:17:57;6.28;;;4.47;;
29940;SDS011;16801;53.562;10.038;2023-10-13T15:21:18;5.95;;;4.68;;
29940;SDS011;16801;53.562;10.038;2023-10-13T15:24:40;8.98;;;5.00;;
29940;SDS011;16801;53.562;10.038;2023-10-13T15:28:04;11.00;;;4.75;;
29940;SDS011;16801;53.562;10.038;2023-10-13T15:31:29;9.15;;;5.70;;
29940;SDS011;16801;53.562;10.038;2023-10-13T15:34:59;8.70;;;4.70;;
29940;SDS011;16801;53.562;10.038;2023-10-13T15:38:20;10.13;;;4.53;;
29940;SDS011;16801;53.562;10.038;2023-10-13T15:41:42;8.23;;;4.97;;
29940;SDS011;16801;53.562;10.038;2023-10-13T15:45:03;9.05;;;4.72;;
29940;SDS011;16801;53.562;10.038;2023-10-13T15:48:35;6.28;;;4.35;;
29940;SDS011;16801;53.562;10.038;2023-10-13T15:51:57;9.27;;;5.00;;
29940;SDS011;16801;53.562;10.038;2023-10-13T15:55:18;6.70;;;4.93;;
29940;SDS011;16801;53.562;10.038;2023-10-13T15:58:39;5.60;;;4.30;;
29940;SDS011;16801;53.562;10.038;2023-10-13T16:02:03;11.02;;;4.82;;
29940;SDS011;16801;53.562;10.038;2023-10-13T16:05:30;6.47;;;5.78;;
29940;SDS011;16801;53.562;10.038;2023-10-13T16:08:55;8.05;;;4.70;;
29940;SDS011;16801;53.562;10.038;2023-10-13T16:12:15;8.43;;;5.25;;
29940;SDS011;16801;53.562;10.038;2023-10-13T16:15:36;8.20;;;5.55;;
29940;SDS011;16801;53.562;10.038;2023-10-13T16:19:01;8.30;;;5.20;;
29940;SDS011;16801;53.562;10.038;2023-10-13T16:22:24;6.13;;;5.15;;
29940;SDS011;16801;53.562;10.038;2023-10-13T16:25:46;6.35;;;4.25;;
29940;SDS011;16801;53.562;10.038;2023-10-13T16:29:08;8.60;;;4.60;;
29940;SDS011;16801;53.562;10.038;2023-10-13T16:32:29;3.80;;;3.50;;
29940;SDS011;16801;53.562;10.038;2023-10-13T16:35:50;5.00;;;3.45;;
29940;SDS011;16801;53.562;10.038;2023-10-13T16:39:13;7.07;;;4.45;;
29940;SDS011;16801;53.562;10.038;2023-10-13T16:42:36;14.63;;;5.28;;
29940;SDS011;16801;53.562;10.038;2023-10-13T16:45:58;6.47;;;3.83;;
29940;SDS011;16801;53.562;10.038;2023-10-13T16:49:19;14.02;;;5.85;;
29940;SDS011;16801;53.562;10.038;2023-10-13T16:52:40;6.95;;;3.90;;
29940;SDS011;16801;53.562;10.038;2023-10-13T16:56:02;9.90;;;4.15;;
29940;SDS011;16801;53.562;10.038;2023-10-13T16:59:24;7.50;;;4.10;;
29940;SDS011;16801;53.562;10.038;2023-10-13T17:02:45;7.00;;;3.67;;
29940;SDS011;16801;53.562;10.038;2023-10-13T17:06:07;6.20;;;3.50;;
29940;SDS011;16801;53.562;10.038;2023-10-13T17:09:28;4.22;;;3.75;;
29940;SDS011;16801;53.562;10.038;2023-10-13T17:12:52;6.45;;;3.40;;
29940;SDS011;16801;53.562;10.038;2023-10-13T17:16:15;6.00;;;4.25;;
29940;SDS011;16801;53.562;10.038;2023-10-13T17:19:37;6.28;;;3.83;;
29940;SDS011;16801;53.562;10.038;2023-10-13T17:22:58;4.45;;;3.38;;
29940;SDS011;16801;53.562;10.038;2023-10-13T17:26:19;4.75;;;3.08;;
29940;SDS011;16801;53.562;10.038;2023-10-13T17:29:42;6.50;;;4.22;;
29940;SDS011;16801;53.562;10.038;2023-10-13T17:33:05;5.60;;;3.70;;
29940;SDS011;16801;53.562;10.038;2023-10-13T17:36:30;4.70;;;3.92;;
29940;SDS011;16801;53.562;10.038;2023-10-13T17:39:51;5.57;;;4.07;;
29940;SDS011;16801;53.562;10.038;2023-10-13T17:43:12;5.43;;;3.33;;
29940;SDS011;16801;53.562;10.038;2023-10-13T17:46:33;4.38;;;2.78;;
29940;SDS011;16801;53.562;10.038;2023-10-13T17:49:55;7.28;;;3.13;;
29940;SDS011;16801;53.562;10.038;2023-10-13T17:53:16;3.83;;;2.30;;
29940;SDS011;16801;53.562;10.038;2023-10-13T17:56:37;3.55;;;2.80;;
29940;SDS011;16801;53.562;10.038;2023-10-13T17:59:58;7.45;;;3.63;;
29940;SDS011;16801;53.562;10.038;2023-10-13T18:03:23;4.03;;;2.83;;
29940;SDS011;16801;53.562;10.038;2023-10-13T18:06:46;6.40;;;2.90;;
29940;SDS011;16801;53.562;10.038;2023-10-13T18:10:08;3.50;;;2.95;;
29940;SDS011;16801;53.562;10.038;2023-10-13T18:13:31;4.30;;;2.88;;
29940;SDS011;16801;53.562;10.038;2023-10-13T18:16:53;3.80;;;2.95;;
29940;SDS011;16801;53.562;10.038;2023-10-13T18:20:14;4.25;;;2.85;;
29940;SDS011;16801;53.562;10.038;2023-10-13T18:23:39;3.90;;;2.83;;
29940;SDS011;16801;53.562;10.038;2023-10-13T18:27:01;8.10;;;3.78;;
29940;SDS011;16801;53.562;10.038;2023-10-13T18:30:23;4.20;;;3.03;;
29940;SDS011;16801;53.562;10.038;2023-10-13T18:33:45;5.40;;;3.20;;
29940;SDS011;16801;53.562;10.038;2023-10-13T18:37:06;4.65;;;2.90;;
29940;SDS011;16801;53.562;10.038;2023-10-13T18:40:30;4.60;;;3.03;;
29940;SDS011;16801;53.562;10.038;2023-10-13T18:43:55;7.03;;;3.00;;
29940;SDS011;16801;53.562;10.038;2023-10-13T18:47:17;4.72;;;3.47;;
29940;SDS011;16801;53.562;10.038;2023-10-13T18:50:40;7.43;;;3.13;;
29940;SDS011;16801;53.562;10.038;2023-10-13T18:54:01;5.28;;;3.42;;
29940;SDS011;16801;53.562;10.038;2023-10-13T18:57:23;5.50;;;3.00;;
29940;SDS011;16801;53.562;10.038;2023-10-13T19:00:44;3.60;;;2.30;;
29940;SDS011;16801;53.562;10.038;2023-10-13T19:04:05;5.75;;;2.67;;
29940;SDS011;16801;53.562;10.038;2023-10-13T19:07:31;3.80;;;3.40;;
29940;SDS011;16801;53.562;10.038;2023-10-13T19:10:52;5.65;;;3.40;;
29940;SDS011;16801;53.562;10.038;2023-10-13T19:14:14;7.15;;;3.83;;
29940;SDS011;16801;53.562;10.038;2023-10-13T19:17:35;3.05;;;2.67;;
29940;SDS011;16801;53.562;10.038;2023-10-13T19:20:56;10.43;;;3.17;;
29940;SDS011;16801;53.562;10.038;2023-10-13T19:24:17;6.57;;;3.70;;
29940;SDS011;16801;53.562;10.038;2023-10-13T19:27:39;4.13;;;3.35;;
29940;SDS011;16801;53.562;10.038;2023-10-13T19:31:01;6.88;;;3.80;;
29940;SDS011;16801;53.562;10.038;2023-10-13T19:34:26;6.80;;;4.65;;
29940;SDS011;16801;53.562;10.038;2023-10-13T19:37:47;6.70;;;4.28;;
29940;SDS011;16801;53.562;10.038;2023-10-13T19:41:14;5.97;;;3.90;;
29940;SDS011;16801;53.562;10.038;2023-10-13T19:44:37;7.80;;;3.50;;
29940;SDS011;16801;53.562;10.038;2023-10-13T19:48:02;8.80;;;5.00;;
29940;SDS011;16801;53.562;10.038;2023-10-13T19:51:23;14.13;;;4.07;;
29940;SDS011;16801;53.562;10.038;2023-10-13T19:54:46;6.45;;;4.32;;
29940;SDS011;16801;53.562;10.038;2023-10-13T19:58:07;8.02;;;4.88;;
29940;SDS011;16801;53.562;10.038;2023-10-13T20:01:28;7.85;;;3.92;;
29940;SDS011;16801;53.562;10.038;2023-10-13T20:04:53;10.63;;;5.00;;
29940;SDS011;16801;53.562;10.038;2023-10-13T20:08:15;7.93;;;3.83;;
29940;SDS011;16801;53.562;10.038;2023-10-13T20:11:36;6.97;;;4.10;;
29940;SDS011;16801;53.562;10.038;2023-10-13T20:14:57;8.63;;;4.78;;
29940;SDS011;16801;53.562;10.038;2023-10-13T20:18:18;8.45;;;4.40;;